createdAt,value
2023-01-30T00:00:32.191Z,69.37
2023-01-30T00:02:58.529Z,70.25
2023-01-30T00:05:24.882Z,69.82
2023-01-30T00:07:51.191Z,69.52
2023-01-30T00:10:17.786Z,69.34
2023-01-30T00:12:44.296Z,69.25
2023-01-30T00:15:10.604Z,68.85
2023-01-30T00:17:38.696Z,68.81
2023-01-30T00:20:05.091Z,69.09
2023-01-30T00:22:31.440Z,68.96
2023-01-30T00:24:57.852Z,68.28
2023-01-30T00:27:24.283Z,68.79
2023-01-30T00:30:02.198Z,68.59
2023-01-30T00:32:29.663Z,67.69
2023-01-30T00:34:55.967Z,68.50
2023-01-30T00:37:22.297Z,68.34
2023-01-30T00:39:48.605Z,67.53
2023-01-30T00:42:33.647Z,68.20
2023-01-30T00:45:19.061Z,67.54
2023-01-30T00:47:45.791Z,68.49
2023-01-30T00:50:12.113Z,67.99
2023-01-30T00:52:38.616Z,68.53
2023-01-30T00:55:04.931Z,67.97
2023-01-30T00:57:31.291Z,68.52
2023-01-30T00:59:57.632Z,67.45
2023-01-30T01:02:23.935Z,68.07
2023-01-30T01:04:50.245Z,68.19
2023-01-30T01:07:16.552Z,67.99
2023-01-30T01:09:42.867Z,69.17
2023-01-30T01:12:09.189Z,69.27
2023-01-30T01:14:35.517Z,68.17
2023-01-30T01:17:02.010Z,67.71
2023-01-30T01:19:28.337Z,68.63
2023-01-30T01:21:54.636Z,68.11
2023-01-30T01:24:21.005Z,69.10
2023-01-30T01:26:47.496Z,68.90
2023-01-30T01:29:13.859Z,69.47
2023-01-30T01:31:40.343Z,68.78
2023-01-30T01:34:06.762Z,69.20
2023-01-30T01:36:52.703Z,70.01
2023-01-30T01:39:19.391Z,69.71
2023-01-30T01:41:45.687Z,69.53
2023-01-30T01:44:12.057Z,69.71
2023-01-30T01:46:38.779Z,71.84
2023-01-30T01:49:05.097Z,71.28
2023-01-30T01:51:31.691Z,71.45
2023-01-30T01:53:58.023Z,71.99
2023-01-30T01:56:24.415Z,70.97
2023-01-30T01:58:50.776Z,71.87
2023-01-30T02:01:17.161Z,72.38
2023-01-30T02:03:43.497Z,73.48
2023-01-30T02:06:09.886Z,73.89
2023-01-30T02:08:36.204Z,73.72
2023-01-30T02:11:02.537Z,74.72
2023-01-30T02:13:28.840Z,74.54
2023-01-30T02:15:55.169Z,73.90
2023-01-30T02:18:21.525Z,74.24
2023-01-30T02:20:47.873Z,74.89
2023-01-30T02:23:14.189Z,76.19
2023-01-30T02:25:40.523Z,76.09
2023-01-30T02:28:06.835Z,76.88
2023-01-30T02:30:33.242Z,77.80
2023-01-30T02:32:59.623Z,77.50
2023-01-30T02:35:25.938Z,77.09
2023-01-30T02:37:52.299Z,77.87
2023-01-30T02:40:18.610Z,77.81
2023-01-30T02:42:44.926Z,78.37
2023-01-30T02:45:11.237Z,79.09
2023-01-30T02:47:37.557Z,79.04
2023-01-30T02:50:03.966Z,78.48
2023-01-30T02:52:30.274Z,78.13
2023-01-30T02:54:56.584Z,79.01
2023-01-30T02:57:22.892Z,79.05
2023-01-30T02:59:49.578Z,79.49
2023-01-30T03:02:15.923Z,79.29
2023-01-30T03:04:42.257Z,79.78
2023-01-30T03:07:08.570Z,79.42
2023-01-30T03:09:34.881Z,79.65
2023-01-30T03:12:01.277Z,79.76
2023-01-30T03:14:27.789Z,79.57
2023-01-30T03:16:54.084Z,79.34
2023-01-30T03:19:20.594Z,79.85
2023-01-30T03:21:46.958Z,79.17
2023-01-30T03:24:13.316Z,79.90
2023-01-30T03:26:39.655Z,79.75
2023-01-30T03:29:05.979Z,79.75
2023-01-30T03:31:32.416Z,80.01
2023-01-30T03:33:58.755Z,79.72
2023-01-30T03:36:25.081Z,79.50
2023-01-30T03:38:52.196Z,80.26
2023-01-30T03:41:18.494Z,80.38
2023-01-30T03:43:44.891Z,80.04
2023-01-30T03:46:11.268Z,80.55
2023-01-30T03:48:37.592Z,80.94
2023-01-30T03:51:03.919Z,81.05
2023-01-30T03:53:30.235Z,80.74
2023-01-30T03:55:56.549Z,81.14
2023-01-30T03:58:22.879Z,81.51
2023-01-30T04:00:49.213Z,81.01
2023-01-30T04:03:15.945Z,80.52
2023-01-30T04:05:42.282Z,80.60
2023-01-30T04:08:08.612Z,80.55
2023-01-30T04:10:34.908Z,80.18
2023-01-30T04:13:01.243Z,80.64
2023-01-30T04:15:27.566Z,80.15
2023-01-30T04:17:53.874Z,80.11
2023-01-30T04:20:20.583Z,80.02
2023-01-30T04:22:46.940Z,80.33
2023-01-30T04:25:13.255Z,79.33
2023-01-30T04:27:39.630Z,79.89
2023-01-30T04:30:05.937Z,79.58
2023-01-30T04:32:32.273Z,79.84
2023-01-30T04:34:58.589Z,79.51
2023-01-30T04:37:24.931Z,79.62
2023-01-30T04:39:51.257Z,79.57
2023-01-30T04:42:17.559Z,79.63
2023-01-30T04:44:43.862Z,79.43
2023-01-30T04:47:10.203Z,78.99
2023-01-30T04:49:36.560Z,79.12
2023-01-30T04:52:02.913Z,78.92
2023-01-30T04:54:29.204Z,79.23
2023-01-30T04:56:55.521Z,79.30
2023-01-30T04:59:21.816Z,79.42
2023-01-30T05:01:48.267Z,79.17
2023-01-30T05:04:14.628Z,79.02
2023-01-30T05:06:41.015Z,78.65
2023-01-30T05:09:07.384Z,78.62
2023-01-30T05:11:33.766Z,78.86
2023-01-30T05:14:00.143Z,78.64
2023-01-30T05:16:26.555Z,78.47
2023-01-30T05:18:52.870Z,78.81
2023-01-30T05:21:19.190Z,78.86
2023-01-30T05:23:45.522Z,78.72
2023-01-30T05:26:11.883Z,78.65
2023-01-30T05:28:38.338Z,78.35
2023-01-30T05:31:04.767Z,77.92
2023-01-30T05:33:31.237Z,78.67
2023-01-30T05:35:57.646Z,78.38
2023-01-30T05:38:24.004Z,77.79
2023-01-30T05:40:50.309Z,77.95
2023-01-30T05:43:16.613Z,77.42
2023-01-30T05:45:42.949Z,78.25
2023-01-30T05:48:09.261Z,78.58
2023-01-30T05:50:35.594Z,78.76
2023-01-30T05:53:01.993Z,79.05
2023-01-30T05:55:28.320Z,79.86
2023-01-30T05:57:54.642Z,79.64
2023-01-30T06:00:20.970Z,79.95
2023-01-30T06:02:47.341Z,80.42
2023-01-30T06:05:13.682Z,80.99
2023-01-30T06:07:40.019Z,80.88
2023-01-30T06:10:06.371Z,80.98
2023-01-30T06:12:32.744Z,80.77
2023-01-30T06:14:59.142Z,80.87
2023-01-30T06:17:25.487Z,81.51
2023-01-30T06:19:51.852Z,80.88
2023-01-30T06:22:18.169Z,80.84
2023-01-30T06:24:44.543Z,80.73
2023-01-30T06:27:10.965Z,80.67
2023-01-30T06:29:37.477Z,80.71
2023-01-30T06:32:03.802Z,80.68
2023-01-30T06:34:30.123Z,80.80
2023-01-30T06:36:56.441Z,81.06
2023-01-30T06:39:22.868Z,81.18
2023-01-30T06:41:49.176Z,81.53
2023-01-30T06:44:15.500Z,83.03
2023-01-30T06:46:41.813Z,84.08
2023-01-30T06:49:08.174Z,85.60
2023-01-30T06:51:34.492Z,86.07
2023-01-30T06:54:00.869Z,85.73
2023-01-30T06:56:27.207Z,87.68
2023-01-30T06:58:53.605Z,88.23
2023-01-30T07:01:21.316Z,88.95
2023-01-30T07:03:48.654Z,89.82
2023-01-30T07:06:15.001Z,91.88
2023-01-30T07:08:41.341Z,93.50
2023-01-30T07:11:07.699Z,95.31
2023-01-30T07:13:34.047Z,96.21
2023-01-30T07:16:00.419Z,98.57
2023-01-30T07:18:26.716Z,100.00
2023-01-30T07:20:53.035Z,100.00
2023-01-30T07:23:19.390Z,100.00
2023-01-30T07:25:45.983Z,100.00
2023-01-30T07:28:12.294Z,100.00
2023-01-30T07:30:38.728Z,98.69
2023-01-30T07:33:05.067Z,99.64
2023-01-30T07:35:31.392Z,100.00
2023-01-30T07:37:57.747Z,98.28
2023-01-30T07:40:24.054Z,98.02
2023-01-30T07:42:50.366Z,98.71
2023-01-30T07:45:17.112Z,96.78
2023-01-30T07:47:43.628Z,96.18
2023-01-30T07:50:09.955Z,95.46
2023-01-30T07:52:36.395Z,94.20
2023-01-30T07:55:02.719Z,93.55
2023-01-30T07:57:29.023Z,93.33
2023-01-30T07:59:55.369Z,92.52
2023-01-30T08:02:21.773Z,92.19
2023-01-30T08:04:48.149Z,92.53
2023-01-30T08:07:14.486Z,93.04
2023-01-30T08:09:40.844Z,92.70
2023-01-30T08:12:07.213Z,94.01
2023-01-30T08:14:33.538Z,92.88
2023-01-30T08:16:59.899Z,93.12
2023-01-30T08:19:26.213Z,93.46
2023-01-30T08:21:52.549Z,93.26
2023-01-30T08:24:18.867Z,93.15
2023-01-30T08:26:45.276Z,95.33
2023-01-30T08:29:11.660Z,98.57
2023-01-30T08:31:38.056Z,100.00
2023-01-30T08:34:04.517Z,100.00
2023-01-30T08:36:30.857Z,99.89
2023-01-30T08:38:57.283Z,100.00
2023-01-30T08:41:23.635Z,100.00
2023-01-30T08:43:49.963Z,99.29
2023-01-30T08:46:17.583Z,97.35
2023-01-30T08:48:49.960Z,98.59
2023-01-30T08:51:16.758Z,96.98
2023-01-30T08:53:43.115Z,95.30
2023-01-30T08:56:09.536Z,95.54
2023-01-30T08:58:35.997Z,94.51
2023-01-30T09:01:02.386Z,92.80
2023-01-30T09:03:28.798Z,91.60
2023-01-30T09:05:55.531Z,92.48
2023-01-30T09:08:21.907Z,92.01
2023-01-30T09:10:48.236Z,91.49
2023-01-30T09:13:14.563Z,91.30
2023-01-30T09:15:40.881Z,91.46
2023-01-30T09:18:07.203Z,91.19
2023-01-30T09:20:33.549Z,90.69
2023-01-30T09:22:59.927Z,89.19
2023-01-30T09:25:26.261Z,88.88
2023-01-30T09:27:52.865Z,89.13
2023-01-30T09:30:19.549Z,88.53
2023-01-30T09:32:46.200Z,88.25
2023-01-30T09:35:12.665Z,88.92
2023-01-30T09:37:38.976Z,89.40
2023-01-30T09:40:05.402Z,88.25
2023-01-30T09:42:31.825Z,87.29
2023-01-30T09:44:58.401Z,87.01
2023-01-30T09:47:24.720Z,87.43
2023-01-30T09:49:51.046Z,88.71
2023-01-30T09:52:19.330Z,89.24
2023-01-30T09:54:45.992Z,88.53
2023-01-30T09:57:21.724Z,87.78
2023-01-30T09:59:48.796Z,86.93
2023-01-30T10:02:15.130Z,85.44
2023-01-30T10:04:51.705Z,84.41
2023-01-30T10:07:25.625Z,83.47
2023-01-30T10:09:52.009Z,82.45
2023-01-30T10:12:18.333Z,80.91
2023-01-30T10:14:44.682Z,79.76
2023-01-30T10:17:11.261Z,80.60
2023-01-30T10:19:37.692Z,79.50
2023-01-30T10:22:04.005Z,79.83
2023-01-30T10:24:30.311Z,79.26
2023-01-30T10:26:56.849Z,78.31
2023-01-30T10:29:23.219Z,78.51
2023-01-30T10:31:49.636Z,78.00
2023-01-30T10:34:16.008Z,78.09
2023-01-30T10:36:42.370Z,78.65
2023-01-30T10:39:08.779Z,78.38
2023-01-30T10:41:35.146Z,77.80
2023-01-30T10:44:01.466Z,77.96
2023-01-30T10:46:27.961Z,77.58
2023-01-30T10:48:54.401Z,77.48
2023-01-30T10:51:22.615Z,76.79
2023-01-30T10:53:48.979Z,76.92
2023-01-30T10:56:15.304Z,77.84
2023-01-30T10:58:41.847Z,78.67
2023-01-30T11:01:08.182Z,79.60
2023-01-30T11:03:34.552Z,80.11
2023-01-30T11:06:00.946Z,80.98
2023-01-30T11:08:27.261Z,80.79
2023-01-30T11:10:53.599Z,81.69
2023-01-30T11:13:20.093Z,81.31
2023-01-30T11:15:46.433Z,81.91
2023-01-30T11:18:49.781Z,81.84
2023-01-30T11:20:59.081Z,81.06
2023-01-30T11:23:25.442Z,80.58
2023-01-30T11:26:05.532Z,81.22
2023-01-30T11:28:36.771Z,82.35
2023-01-30T11:31:03.211Z,81.71
2023-01-30T11:33:29.759Z,82.65
2023-01-30T11:35:56.079Z,83.13
2023-01-30T11:38:22.470Z,83.82
2023-01-30T11:40:48.879Z,83.78
2023-01-30T11:43:15.225Z,84.29
2023-01-30T11:45:41.651Z,84.34
2023-01-30T11:48:10.409Z,84.13
2023-01-30T11:50:43.930Z,84.72
2023-01-30T11:53:13.554Z,85.20
2023-01-30T11:55:41.760Z,85.23
2023-01-30T11:58:09.474Z,85.89
2023-01-30T12:00:35.811Z,85.31
2023-01-30T12:03:02.208Z,85.28
2023-01-30T12:05:28.562Z,85.46
2023-01-30T12:07:54.950Z,85.48
2023-01-30T12:10:21.264Z,84.96
2023-01-30T12:12:47.607Z,84.94
2023-01-30T12:15:13.941Z,84.64
2023-01-30T12:17:40.298Z,84.71
2023-01-30T12:20:06.660Z,84.46
2023-01-30T12:22:33.024Z,84.69
2023-01-30T12:24:59.396Z,84.14
2023-01-30T12:27:25.769Z,84.55
2023-01-30T12:29:52.172Z,83.02
2023-01-30T12:32:18.468Z,83.08
2023-01-30T12:34:45.723Z,81.37
2023-01-30T12:37:12.039Z,79.02
2023-01-30T12:39:38.394Z,79.48
2023-01-30T12:42:04.701Z,81.45
2023-01-30T12:44:31.116Z,81.27
2023-01-30T12:46:57.510Z,82.15
2023-01-30T12:49:23.813Z,81.33
2023-01-30T12:51:50.153Z,81.16
2023-01-30T12:54:16.485Z,80.46
2023-01-30T12:56:42.814Z,79.43
2023-01-30T12:59:09.139Z,80.53
2023-01-30T13:01:35.623Z,81.90
2023-01-30T13:04:01.966Z,82.37
2023-01-30T13:06:28.327Z,82.18
2023-01-30T13:08:54.647Z,82.84
2023-01-30T13:11:20.978Z,83.22
2023-01-30T13:13:47.384Z,83.61
2023-01-30T13:16:13.788Z,83.35
2023-01-30T13:18:40.102Z,82.62
2023-01-30T13:21:06.431Z,81.68
2023-01-30T13:23:32.808Z,82.21
2023-01-30T13:25:59.309Z,82.00
2023-01-30T13:28:26.098Z,81.23
2023-01-30T13:30:52.613Z,79.55
2023-01-30T13:33:18.947Z,79.48
2023-01-30T13:35:45.307Z,78.81
2023-01-30T13:38:11.642Z,78.05
2023-01-30T13:40:38.627Z,77.24
2023-01-30T13:43:07.255Z,78.13
2023-01-30T13:45:33.854Z,77.56
2023-01-30T13:48:02.031Z,79.01
2023-01-30T13:50:28.411Z,77.62
2023-01-30T13:52:54.791Z,77.58
2023-01-30T13:55:21.178Z,76.86
2023-01-30T13:57:47.610Z,77.13
2023-01-30T14:00:13.991Z,77.40
2023-01-30T14:02:40.304Z,77.12
2023-01-30T14:05:06.672Z,76.86
2023-01-30T14:07:33.066Z,76.51
2023-01-30T14:09:59.390Z,75.92
2023-01-30T14:12:26.149Z,76.75
2023-01-30T14:14:53.468Z,76.68
2023-01-30T14:17:19.815Z,76.23
2023-01-30T14:19:46.199Z,76.15
2023-01-30T14:22:12.563Z,76.39
2023-01-30T14:24:38.910Z,76.20
2023-01-30T14:27:05.346Z,77.09
2023-01-30T14:29:31.660Z,76.15
2023-01-30T14:31:58.242Z,77.07
2023-01-30T14:34:24.655Z,77.34
2023-01-30T14:36:51.003Z,78.27
2023-01-30T14:39:17.381Z,78.84
2023-01-30T14:41:43.743Z,78.53
2023-01-30T14:44:10.094Z,78.70
2023-01-30T14:46:36.458Z,78.62
2023-01-30T14:49:05.351Z,79.55
2023-01-30T14:51:31.783Z,79.53
2023-01-30T14:53:58.125Z,79.69
2023-01-30T14:56:24.430Z,79.86
2023-01-30T14:58:50.818Z,80.27
2023-01-30T15:01:17.220Z,79.48
2023-01-30T15:03:43.592Z,79.69
2023-01-30T15:06:09.910Z,79.44
2023-01-30T15:08:36.232Z,79.03
2023-01-30T15:11:02.557Z,79.16
2023-01-30T15:13:28.880Z,78.85
2023-01-30T15:15:55.228Z,78.87
2023-01-30T15:18:21.582Z,80.04
2023-01-30T15:20:47.901Z,81.41
2023-01-30T15:23:14.226Z,80.91
2023-01-30T15:25:40.647Z,81.36
2023-01-30T15:28:07.082Z,82.42
2023-01-30T15:30:34.994Z,82.20
2023-01-30T15:33:01.371Z,82.80
2023-01-30T15:35:27.797Z,84.67
2023-01-30T15:37:54.189Z,84.78
2023-01-30T15:40:21.228Z,83.87
2023-01-30T15:42:47.814Z,84.09
2023-01-30T15:45:14.200Z,87.12
2023-01-30T15:47:40.994Z,91.20
2023-01-30T15:50:07.379Z,93.56
2023-01-30T15:52:33.703Z,95.53
2023-01-30T15:55:00.020Z,96.01
2023-01-30T15:57:26.413Z,97.32
2023-01-30T15:59:52.718Z,99.44
2023-01-30T16:02:19.063Z,100.00
2023-01-30T16:04:45.486Z,100.00
2023-01-30T16:07:11.790Z,100.00
2023-01-30T16:09:38.099Z,100.00
2023-01-30T16:12:04.413Z,100.00
2023-01-30T16:14:30.731Z,100.00
2023-01-30T16:16:57.045Z,99.35
2023-01-30T16:19:23.393Z,98.30
2023-01-30T16:21:49.728Z,97.46
2023-01-30T16:24:16.122Z,97.53
2023-01-30T16:26:42.474Z,96.99
2023-01-30T16:29:08.897Z,97.63
2023-01-30T16:31:35.355Z,97.75
2023-01-30T16:34:03.334Z,97.34
2023-01-30T16:36:30.285Z,96.92
2023-01-30T16:38:56.694Z,96.73
2023-01-30T16:41:23.035Z,95.78
2023-01-30T16:43:49.340Z,95.47
2023-01-30T16:46:15.818Z,94.61
2023-01-30T16:48:42.177Z,93.66
2023-01-30T16:51:10.730Z,92.29
2023-01-30T16:53:37.045Z,91.78
2023-01-30T16:56:04.145Z,91.05
2023-01-30T16:58:32.655Z,90.66
2023-01-30T17:00:59.079Z,89.71
2023-01-30T17:03:25.507Z,89.03
2023-01-30T17:05:51.841Z,89.22
2023-01-30T17:08:18.153Z,90.07
2023-01-30T17:10:45.008Z,90.58
2023-01-30T17:13:11.321Z,92.25
2023-01-30T17:15:37.642Z,93.00
2023-01-30T17:18:04.176Z,92.95
2023-01-30T17:20:30.497Z,93.66
2023-01-30T17:22:57.884Z,95.29
2023-01-30T17:25:24.401Z,97.32
2023-01-30T17:27:51.095Z,97.78
2023-01-30T17:30:17.608Z,98.86
2023-01-30T17:32:44.121Z,99.63
2023-01-30T17:35:10.511Z,100.00
2023-01-30T17:37:36.924Z,99.47
2023-01-30T17:40:03.411Z,97.56
2023-01-30T17:42:29.742Z,96.17
2023-01-30T17:44:56.100Z,94.66
2023-01-30T17:47:22.633Z,92.02
2023-01-30T17:49:48.993Z,92.05
2023-01-30T17:52:15.420Z,94.42
2023-01-30T17:54:42.034Z,95.55
2023-01-30T17:57:11.478Z,97.81
2023-01-30T17:59:37.843Z,98.74
2023-01-30T18:02:04.278Z,98.56
2023-01-30T18:04:30.647Z,99.18
2023-01-30T18:06:58.290Z,98.95
2023-01-30T18:09:24.667Z,98.90
2023-01-30T18:11:51.030Z,99.06
2023-01-30T18:14:17.341Z,98.07
2023-01-30T18:16:43.739Z,96.75
2023-01-30T18:19:10.268Z,94.50
2023-01-30T18:21:36.596Z,94.96
2023-01-30T18:24:03.008Z,94.98
2023-01-30T18:26:30.138Z,94.94
2023-01-30T18:28:56.473Z,95.83
2023-01-30T18:31:25.327Z,94.19
2023-01-30T18:33:52.270Z,94.13
2023-01-30T18:36:18.591Z,92.67
2023-01-30T18:38:44.936Z,91.50
2023-01-30T18:41:11.272Z,91.70
2023-01-30T18:43:37.603Z,90.08
2023-01-30T18:46:03.954Z,88.95
2023-01-30T18:48:30.261Z,89.05
2023-01-30T18:50:56.570Z,89.19
2023-01-30T18:53:22.886Z,89.37
2023-01-30T18:55:49.551Z,89.31
2023-01-30T18:58:16.173Z,89.05
2023-01-30T19:00:42.476Z,88.40
2023-01-30T19:03:08.776Z,87.49
2023-01-30T19:05:35.180Z,87.39
2023-01-30T19:08:01.474Z,87.05
2023-01-30T19:10:28.475Z,86.37
2023-01-30T19:13:13.751Z,85.69
2023-01-30T19:15:40.156Z,85.17
2023-01-30T19:18:06.539Z,84.63
2023-01-30T19:20:32.862Z,84.28
2023-01-30T19:22:59.900Z,84.67
2023-01-30T19:25:26.542Z,84.21
2023-01-30T19:27:55.055Z,85.03
2023-01-30T19:30:22.191Z,84.72
2023-01-30T19:32:49.025Z,85.01
2023-01-30T19:35:15.350Z,85.79
2023-01-30T19:37:41.696Z,86.33
2023-01-30T19:40:11.265Z,85.40
2023-01-30T19:42:40.377Z,84.89
2023-01-30T19:45:10.213Z,85.18
2023-01-30T19:47:36.533Z,85.66
2023-01-30T19:50:02.925Z,85.72
2023-01-30T19:52:29.292Z,85.44
2023-01-30T19:54:55.635Z,85.12
2023-01-30T19:57:22.146Z,85.06
2023-01-30T19:59:48.457Z,84.79
2023-01-30T20:02:14.878Z,84.17
2023-01-30T20:04:41.347Z,83.32
2023-01-30T20:07:07.651Z,83.82
2023-01-30T20:09:34.047Z,83.51
2023-01-30T20:12:00.407Z,83.03
2023-01-30T20:14:26.719Z,82.49
2023-01-30T20:16:53.047Z,81.85
2023-01-30T20:19:19.389Z,81.43
2023-01-30T20:21:49.220Z,80.57
2023-01-30T20:24:15.626Z,80.55
2023-01-30T20:26:42.161Z,80.35
2023-01-30T20:29:08.551Z,80.65
2023-01-30T20:31:35.092Z,81.01
2023-01-30T20:34:01.467Z,80.98
2023-01-30T20:36:27.881Z,81.16
2023-01-30T20:38:55.059Z,81.12
2023-01-30T20:41:21.430Z,80.92
2023-01-30T20:43:49.398Z,81.57
2023-01-30T20:46:15.757Z,81.72
2023-01-30T20:48:42.125Z,81.94
2023-01-30T20:51:08.631Z,81.82
2023-01-30T20:53:34.968Z,81.89
2023-01-30T20:56:01.756Z,81.61
2023-01-30T20:58:28.148Z,81.87
2023-01-30T21:00:54.514Z,81.77
2023-01-30T21:03:20.821Z,81.84
2023-01-30T21:05:47.293Z,81.88
2023-01-30T21:08:13.611Z,82.71
2023-01-30T21:10:46.594Z,82.16
2023-01-30T21:13:14.393Z,82.21
2023-01-30T21:15:40.734Z,82.23
2023-01-30T21:18:07.053Z,82.34
2023-01-30T21:20:33.425Z,82.23
2023-01-30T21:22:59.808Z,82.22
2023-01-30T21:25:26.111Z,81.90
2023-01-30T21:27:52.422Z,81.65
2023-01-30T21:30:18.724Z,82.09
2023-01-30T21:32:45.051Z,82.56
2023-01-30T21:35:11.349Z,82.22
2023-01-30T21:37:56.527Z,81.97
2023-01-30T21:40:41.554Z,82.03
2023-01-30T21:43:13.797Z,82.36
2023-01-30T21:45:40.182Z,82.46
2023-01-30T21:48:06.532Z,83.98
2023-01-30T21:50:32.893Z,86.12
2023-01-30T21:52:59.202Z,89.17
2023-01-30T21:55:25.851Z,93.39
2023-01-30T21:57:53.389Z,96.82
2023-01-30T22:00:19.769Z,98.28
2023-01-30T22:02:46.079Z,99.50
2023-01-30T22:05:12.445Z,97.96
2023-01-30T22:07:38.768Z,97.09
2023-01-30T22:10:05.091Z,95.16
2023-01-30T22:12:34.436Z,95.28
2023-01-30T22:15:00.762Z,94.80
2023-01-30T22:17:27.117Z,95.42
2023-01-30T22:19:54.002Z,94.14
2023-01-30T22:22:20.731Z,93.30
2023-01-30T22:24:47.033Z,93.71
2023-01-30T22:27:13.422Z,92.35
2023-01-30T22:29:39.733Z,92.64
2023-01-30T22:32:06.050Z,92.23
2023-01-30T22:34:34.284Z,90.74
2023-01-30T22:37:02.150Z,91.67
2023-01-30T22:39:28.453Z,91.11
2023-01-30T22:41:55.054Z,89.64
2023-01-30T22:44:21.379Z,87.84
2023-01-30T22:46:47.725Z,87.55
2023-01-30T22:49:14.109Z,86.71
2023-01-30T22:51:40.841Z,86.06
2023-01-30T22:54:07.318Z,84.99
2023-01-30T22:56:33.628Z,83.38
2023-01-30T22:58:59.977Z,83.67
2023-01-30T23:01:26.289Z,83.74
2023-01-30T23:03:52.663Z,83.94
2023-01-30T23:06:19.031Z,83.93
2023-01-30T23:08:45.401Z,83.99
2023-01-30T23:11:11.755Z,84.47
2023-01-30T23:13:38.173Z,84.78
2023-01-30T23:16:04.473Z,84.46
2023-01-30T23:19:00.375Z,84.20
2023-01-30T23:21:26.680Z,83.65
2023-01-30T23:23:53.285Z,83.75
2023-01-30T23:26:19.620Z,83.21
2023-01-30T23:28:45.961Z,83.01
2023-01-30T23:31:12.294Z,83.17
2023-01-30T23:33:38.912Z,83.30
2023-01-30T23:36:05.287Z,84.58
2023-01-30T23:38:31.644Z,85.96
2023-01-30T23:40:57.967Z,87.41
2023-01-30T23:43:24.302Z,88.78
2023-01-30T23:45:54.031Z,91.30
2023-01-30T23:48:20.490Z,93.48
2023-01-30T23:50:46.804Z,95.35
2023-01-30T23:53:13.116Z,93.38
2023-01-30T23:55:39.876Z,92.81
2023-01-30T23:58:06.285Z,93.08
